sensor_id;sensor_type;location;lat;lon;timestamp;pressure;altitude;pressure_sealevel;temperature;humidity
66857;BME280;53766;50.280;19.160;2022-09-13T00:00:03;98341.13;;;22.97;41.60
66857;BME280;53766;50.280;19.160;2022-09-13T00:02:51;98340.28;;;22.97;41.64
66857;BME280;53766;50.280;19.160;2022-09-13T00:05:18;98339.47;;;22.96;41.58
66857;BME280;53766;50.280;19.160;2022-09-13T00:07:47;98338.44;;;22.97;41.54
66857;BME280;53766;50.280;19.160;2022-09-13T00:10:15;98342.16;;;22.96;41.55
66857;BME280;53766;50.280;19.160;2022-09-13T00:12:43;98344.03;;;22.96;41.46
66857;BME280;53766;50.280;19.160;2022-09-13T00:15:11;98340.56;;;22.95;41.59
66857;BME280;53766;50.280;19.160;2022-09-13T00:17:38;98339.72;;;22.95;41.44
66857;BME280;53766;50.280;19.160;2022-09-13T00:20:06;98338.91;;;22.94;41.45
66857;BME280;53766;50.280;19.160;2022-09-13T00:22:35;98333.53;;;22.94;41.33
66857;BME280;53766;50.280;19.160;2022-09-13T00:25:03;98332.72;;;22.94;41.34
66857;BME280;53766;50.280;19.160;2022-09-13T00:27:32;98334.59;;;22.93;41.43
66857;BME280;53766;50.280;19.160;2022-09-13T00:30:00;98323.84;;;22.93;41.39
66857;BME280;53766;50.280;19.160;2022-09-13T00:32:28;98324.88;;;22.92;41.47
66857;BME280;53766;50.280;19.160;2022-09-13T00:34:55;98321.16;;;22.93;41.51
66857;BME280;53766;50.280;19.160;2022-09-13T00:37:22;98320.31;;;22.93;41.32
66857;BME280;53766;50.280;19.160;2022-09-13T00:39:50;98318.72;;;22.92;41.36
66857;BME280;53766;50.280;19.160;2022-09-13T00:42:26;98316.03;;;22.92;41.40
66857;BME280;53766;50.280;19.160;2022-09-13T00:44:58;98317.09;;;22.91;41.43
66857;BME280;53766;50.280;19.160;2022-09-13T00:47:53;98318.72;;;22.92;41.35
66857;BME280;53766;50.280;19.160;2022-09-13T00:50:33;98317.91;;;22.91;41.24
66857;BME280;53766;50.280;19.160;2022-09-13T00:53:11;98318.72;;;22.92;41.26
66857;BME280;53766;50.280;19.160;2022-09-13T00:58:30;98307.16;;;22.91;41.04
66857;BME280;53766;50.280;19.160;2022-09-13T01:01:00;98314.63;;;22.89;41.27
66857;BME280;53766;50.280;19.160;2022-09-13T01:03:33;98309.25;;;22.89;41.21
66857;BME280;53766;50.280;19.160;2022-09-13T01:06:09;98314.63;;;22.89;41.26
66857;BME280;53766;50.280;19.160;2022-09-13T01:08:40;98314.63;;;22.89;41.28
66857;BME280;53766;50.280;19.160;2022-09-13T01:11:15;98313.81;;;22.89;41.32
66857;BME280;53766;50.280;19.160;2022-09-13T01:13:46;98312.97;;;22.88;41.12
66857;BME280;53766;50.280;19.160;2022-09-13T01:16:14;98315.44;;;22.90;41.13
66857;BME280;53766;50.280;19.160;2022-09-13T01:18:41;98315.66;;;22.88;41.17
66857;BME280;53766;50.280;19.160;2022-09-13T01:35:16;98306.22;;;22.86;41.02
66857;BME280;53766;50.280;19.160;2022-09-13T01:40:27;98303.53;;;22.86;40.90
66857;BME280;53766;50.280;19.160;2022-09-13T01:46:08;98300.84;;;22.86;41.01
66857;BME280;53766;50.280;19.160;2022-09-13T01:51:48;98301.06;;;22.84;40.99
66857;BME280;53766;50.280;19.160;2022-09-13T01:54:29;98295.72;;;22.84;40.88
66857;BME280;53766;50.280;19.160;2022-09-13T01:59:59;98283.34;;;22.83;41.10
66857;BME280;53766;50.280;19.160;2022-09-13T02:05:13;98288.72;;;22.83;40.82
66857;BME280;53766;50.280;19.160;2022-09-13T02:07:45;98276.38;;;22.82;40.82
66857;BME280;53766;50.280;19.160;2022-09-13T02:10:23;98281.72;;;22.82;40.86
66857;BME280;53766;50.280;19.160;2022-09-13T02:12:53;98279.03;;;22.82;40.78
66857;BME280;53766;50.280;19.160;2022-09-13T02:15:51;98276.38;;;22.82;40.89
66857;BME280;53766;50.280;19.160;2022-09-13T02:18:24;98278.22;;;22.82;40.82
66857;BME280;53766;50.280;19.160;2022-09-13T02:20:58;98274.72;;;22.81;40.77
66857;BME280;53766;50.280;19.160;2022-09-13T02:23:51;98273.09;;;22.80;40.68
66857;BME280;53766;50.280;19.160;2022-09-13T02:26:21;98266.88;;;22.79;40.66
66857;BME280;53766;50.280;19.160;2022-09-13T02:28:51;98272.25;;;22.79;40.60
66857;BME280;53766;50.280;19.160;2022-09-13T02:31:27;98260.72;;;22.79;40.79
66857;BME280;53766;50.280;19.160;2022-09-13T02:34:00;98263.38;;;22.79;40.71
66857;BME280;53766;50.280;19.160;2022-09-13T02:36:33;98266.06;;;22.79;40.70
66857;BME280;53766;50.280;19.160;2022-09-13T02:39:05;98269.84;;;22.78;40.84
66857;BME280;53766;50.280;19.160;2022-09-13T02:42:03;98258.03;;;22.79;40.59
66857;BME280;53766;50.280;19.160;2022-09-13T02:50:12;98246.69;;;22.77;40.72
66857;BME280;53766;50.280;19.160;2022-09-13T02:55:43;98241.34;;;22.77;40.57
66857;BME280;53766;50.280;19.160;2022-09-13T02:58:42;98245.09;;;22.76;40.59
66857;BME280;53766;50.280;19.160;2022-09-13T03:01:12;98238.06;;;22.75;40.58
66857;BME280;53766;50.280;19.160;2022-09-13T03:03:40;98238.66;;;22.77;40.47
66857;BME280;53766;50.280;19.160;2022-09-13T03:06:08;98240.53;;;22.76;40.55
66857;BME280;53766;50.280;19.160;2022-09-13T03:08:36;98232.69;;;22.75;40.40
66857;BME280;53766;50.280;19.160;2022-09-13T03:11:24;98233.50;;;22.75;40.52
66857;BME280;53766;50.280;19.160;2022-09-13T03:19:55;98239.13;;;22.74;40.65
66857;BME280;53766;50.280;19.160;2022-09-13T03:22:47;98235.63;;;22.73;40.43
66857;BME280;53766;50.280;19.160;2022-09-13T03:33:38;98225.13;;;22.72;40.35
66857;BME280;53766;50.280;19.160;2022-09-13T03:39:25;98222.44;;;22.72;40.21
66857;BME280;53766;50.280;19.160;2022-09-13T03:42:03;98221.63;;;22.71;40.40
66857;BME280;53766;50.280;19.160;2022-09-13T03:44:32;98226.16;;;22.71;40.39
66857;BME280;53766;50.280;19.160;2022-09-13T03:47:03;98224.56;;;22.70;40.43
66857;BME280;53766;50.280;19.160;2022-09-13T03:49:31;98226.16;;;22.71;40.38
66857;BME280;53766;50.280;19.160;2022-09-13T03:51:59;98232.59;;;22.70;40.29
66857;BME280;53766;50.280;19.160;2022-09-13T03:54:31;98231.53;;;22.71;40.31
66857;BME280;53766;50.280;19.160;2022-09-13T03:57:09;98231.53;;;22.71;40.25
66857;BME280;53766;50.280;19.160;2022-09-13T03:59:40;98219.19;;;22.70;40.31
66857;BME280;53766;50.280;19.160;2022-09-13T04:02:09;98214.84;;;22.69;40.12
66857;BME280;53766;50.280;19.160;2022-09-13T04:04:39;98212.16;;;22.69;40.30
66857;BME280;53766;50.280;19.160;2022-09-13T04:07:09;98220.47;;;22.67;40.18
66857;BME280;53766;50.280;19.160;2022-09-13T04:09:37;98222.91;;;22.69;40.44
66857;BME280;53766;50.280;19.160;2022-09-13T04:12:05;98212.16;;;22.69;40.02
66857;BME280;53766;50.280;19.160;2022-09-13T04:14:33;98214.03;;;22.68;40.19
66857;BME280;53766;50.280;19.160;2022-09-13T04:17:00;98212.16;;;22.69;40.19
66857;BME280;53766;50.280;19.160;2022-09-13T04:19:28;98220.47;;;22.67;40.18
66857;BME280;53766;50.280;19.160;2022-09-13T04:21:55;98219.63;;;22.67;40.38
66857;BME280;53766;50.280;19.160;2022-09-13T04:24:27;98230.38;;;22.67;40.22
66857;BME280;53766;50.280;19.160;2022-09-13T04:26:56;98223.38;;;22.66;40.27
66857;BME280;53766;50.280;19.160;2022-09-13T04:29:25;98227.13;;;22.65;40.46
66857;BME280;53766;50.280;19.160;2022-09-13T04:31:53;98223.38;;;22.66;40.30
66857;BME280;53766;50.280;19.160;2022-09-13T04:34:22;98226.06;;;22.66;40.29
66857;BME280;53766;50.280;19.160;2022-09-13T04:36:51;98222.59;;;22.65;40.31
66857;BME280;53766;50.280;19.160;2022-09-13T04:39:19;98218.03;;;22.66;40.35
66857;BME280;53766;50.280;19.160;2022-09-13T04:41:48;98223.38;;;22.66;40.31
66857;BME280;53766;50.280;19.160;2022-09-13T04:44:16;98221.78;;;22.65;40.25
66857;BME280;53766;50.280;19.160;2022-09-13T04:46:46;98214.75;;;22.64;40.35
66857;BME280;53766;50.280;19.160;2022-09-13T04:49:15;98224.47;;;22.65;40.32
66857;BME280;53766;50.280;19.160;2022-09-13T04:51:43;98222.59;;;22.65;40.38
66857;BME280;53766;50.280;19.160;2022-09-13T04:54:11;98227.13;;;22.65;40.32
66857;BME280;53766;50.280;19.160;2022-09-13T04:56:43;98232.50;;;22.65;40.44
66857;BME280;53766;50.280;19.160;2022-09-13T04:59:12;98226.06;;;22.66;40.31
66857;BME280;53766;50.280;19.160;2022-09-13T05:01:40;98211.84;;;22.65;40.43
66857;BME280;53766;50.280;19.160;2022-09-13T05:04:08;98224.19;;;22.66;40.37
66857;BME280;53766;50.280;19.160;2022-09-13T05:06:36;98221.28;;;22.68;40.38
66857;BME280;53766;50.280;19.160;2022-09-13T05:09:05;98216.94;;;22.67;40.44
66857;BME280;53766;50.280;19.160;2022-09-13T05:11:34;98219.63;;;22.67;40.38
66857;BME280;53766;50.280;19.160;2022-09-13T05:14:02;98221.28;;;22.68;40.57
66857;BME280;53766;50.280;19.160;2022-09-13T05:16:31;98225.84;;;22.67;40.57
66857;BME280;53766;50.280;19.160;2022-09-13T05:19:01;98214.03;;;22.68;40.54
66857;BME280;53766;50.280;19.160;2022-09-13T05:21:29;98216.72;;;22.68;40.61
66857;BME280;53766;50.280;19.160;2022-09-13T05:23:57;98223.75;;;22.69;40.58
66857;BME280;53766;50.280;19.160;2022-09-13T05:26:26;98214.84;;;22.69;40.53
66857;BME280;53766;50.280;19.160;2022-09-13T05:28:58;98219.19;;;22.70;40.50
66857;BME280;53766;50.280;19.160;2022-09-13T05:31:31;98224.56;;;22.70;40.64
66857;BME280;53766;50.280;19.160;2022-09-13T05:34:06;98226.16;;;22.71;40.69
66857;BME280;53766;50.280;19.160;2022-09-13T05:36:34;98218.13;;;22.71;40.47
66857;BME280;53766;50.280;19.160;2022-09-13T05:39:03;98221.63;;;22.71;40.56
66857;BME280;53766;50.280;19.160;2022-09-13T05:41:51;98218.69;;;22.73;40.64
66857;BME280;53766;50.280;19.160;2022-09-13T05:44:18;98218.69;;;22.73;40.70
66857;BME280;53766;50.280;19.160;2022-09-13T05:46:46;98226.75;;;22.73;40.59
66857;BME280;53766;50.280;19.160;2022-09-13T05:49:14;98225.72;;;22.74;40.58
66857;BME280;53766;50.280;19.160;2022-09-13T05:51:42;98221.97;;;22.75;40.67
66857;BME280;53766;50.280;19.160;2022-09-13T05:54:11;98228.13;;;22.75;40.66
66857;BME280;53766;50.280;19.160;2022-09-13T05:56:38;98230.59;;;22.77;40.54
66857;BME280;53766;50.280;19.160;2022-09-13T05:59:06;98222.53;;;22.77;40.59
66857;BME280;53766;50.280;19.160;2022-09-13T06:01:35;98219.84;;;22.77;40.70
66857;BME280;53766;50.280;19.160;2022-09-13T06:04:03;98222.31;;;22.78;40.72
66857;BME280;53766;50.280;19.160;2022-09-13T06:06:30;98215.88;;;22.79;40.74
66857;BME280;53766;50.280;19.160;2022-09-13T06:08:58;98219.41;;;22.80;40.74
66857;BME280;53766;50.280;19.160;2022-09-13T06:11:26;98223.69;;;22.81;40.64
66857;BME280;53766;50.280;19.160;2022-09-13T06:13:53;98218.31;;;22.81;40.73
66857;BME280;53766;50.280;19.160;2022-09-13T06:16:21;98222.66;;;22.82;40.87
66857;BME280;53766;50.280;19.160;2022-09-13T06:18:49;98226.97;;;22.83;40.64
66857;BME280;53766;50.280;19.160;2022-09-13T06:21:21;98225.91;;;22.84;40.75
66857;BME280;53766;50.280;19.160;2022-09-13T06:23:56;98223.22;;;22.84;40.81
66857;BME280;53766;50.280;19.160;2022-09-13T06:26:25;98231.84;;;22.86;40.80
66857;BME280;53766;50.280;19.160;2022-09-13T06:28:55;98231.84;;;22.86;40.71
66857;BME280;53766;50.280;19.160;2022-09-13T06:31:24;98236.19;;;22.87;40.89
66857;BME280;53766;50.280;19.160;2022-09-13T06:33:58;98230.81;;;22.87;40.86
66857;BME280;53766;50.280;19.160;2022-09-13T06:36:26;98227.06;;;22.88;40.77
66857;BME280;53766;50.280;19.160;2022-09-13T06:39:15;98226.00;;;22.89;40.70
66857;BME280;53766;50.280;19.160;2022-09-13T06:42:45;98227.41;;;22.92;40.75
66857;BME280;53766;50.280;19.160;2022-09-13T06:45:13;98229.03;;;22.93;40.75
66857;BME280;53766;50.280;19.160;2022-09-13T06:47:41;98230.91;;;22.92;40.72
66857;BME280;53766;50.280;19.160;2022-09-13T06:50:08;98219.13;;;22.93;40.77
66857;BME280;53766;50.280;19.160;2022-09-13T06:52:36;98222.38;;;22.95;40.73
66857;BME280;53766;50.280;19.160;2022-09-13T06:55:03;98226.91;;;22.95;40.64
66857;BME280;53766;50.280;19.160;2022-09-13T06:57:37;98214.91;;;22.97;40.85
66857;BME280;53766;50.280;19.160;2022-09-13T07:00:04;98220.28;;;22.97;40.85
66857;BME280;53766;50.280;19.160;2022-09-13T07:02:32;98217.59;;;22.97;40.84
66857;BME280;53766;50.280;19.160;2022-09-13T07:05:00;98211.16;;;22.98;40.72
66857;BME280;53766;50.280;19.160;2022-09-13T07:07:29;98212.78;;;22.99;40.88
66857;BME280;53766;50.280;19.160;2022-09-13T07:09:57;98211.75;;;23.00;40.95
66857;BME280;53766;50.280;19.160;2022-09-13T07:12:24;98210.69;;;23.02;40.88
66857;BME280;53766;50.280;19.160;2022-09-13T07:14:52;98206.97;;;23.03;40.74
66857;BME280;53766;50.280;19.160;2022-09-13T07:17:20;98203.22;;;23.04;40.84
66857;BME280;53766;50.280;19.160;2022-09-13T07:19:48;98206.72;;;23.04;40.88
66857;BME280;53766;50.280;19.160;2022-09-13T07:22:15;98206.47;;;23.06;40.81
66857;BME280;53766;50.280;19.160;2022-09-13T07:24:42;98195.72;;;23.06;40.88
66857;BME280;53766;50.280;19.160;2022-09-13T07:27:10;98207.06;;;23.08;40.74
66857;BME280;53766;50.280;19.160;2022-09-13T07:29:39;98199.81;;;23.08;41.00
66857;BME280;53766;50.280;19.160;2022-09-13T07:32:06;98202.25;;;23.10;40.95
66857;BME280;53766;50.280;19.160;2022-09-13T07:34:34;98208.69;;;23.09;40.90
66857;BME280;53766;50.280;19.160;2022-09-13T07:37:01;98202.25;;;23.10;40.88
66857;BME280;53766;50.280;19.160;2022-09-13T07:39:29;98199.34;;;23.11;40.92
66857;BME280;53766;50.280;19.160;2022-09-13T07:41:56;98190.22;;;23.12;40.75
66857;BME280;53766;50.280;19.160;2022-09-13T07:44:24;98191.03;;;23.13;41.09
66857;BME280;53766;50.280;19.160;2022-09-13T07:46:51;98187.28;;;23.14;41.03
66857;BME280;53766;50.280;19.160;2022-09-13T07:49:19;98187.28;;;23.14;41.00
66857;BME280;53766;50.280;19.160;2022-09-13T07:51:47;98189.75;;;23.15;41.09
66857;BME280;53766;50.280;19.160;2022-09-13T07:54:17;98193.25;;;23.16;40.95
66857;BME280;53766;50.280;19.160;2022-09-13T07:57:03;98188.69;;;23.16;41.06
66857;BME280;53766;50.280;19.160;2022-09-13T08:00:01;98197.31;;;23.18;40.96
66857;BME280;53766;50.280;19.160;2022-09-13T08:02:29;98195.44;;;23.19;41.04
66857;BME280;53766;50.280;19.160;2022-09-13T08:04:56;98190.63;;;23.21;40.98
66857;BME280;53766;50.280;19.160;2022-09-13T08:07:23;98188.78;;;23.22;40.88
66857;BME280;53766;50.280;19.160;2022-09-13T08:09:51;98197.41;;;23.24;41.14
66857;BME280;53766;50.280;19.160;2022-09-13T08:12:21;98192.03;;;23.24;41.13
66857;BME280;53766;50.280;19.160;2022-09-13T08:14:48;98192.03;;;23.24;41.02
66857;BME280;53766;50.280;19.160;2022-09-13T08:17:16;98184.78;;;23.24;41.23
66857;BME280;53766;50.280;19.160;2022-09-13T08:19:44;98184.00;;;23.24;41.05
66857;BME280;53766;50.280;19.160;2022-09-13T08:22:11;98187.25;;;23.26;41.16
66857;BME280;53766;50.280;19.160;2022-09-13T08:24:39;98180.00;;;23.26;41.02
66857;BME280;53766;50.280;19.160;2022-09-13T08:27:06;98181.38;;;23.29;41.15
66857;BME280;53766;50.280;19.160;2022-09-13T08:29:34;98174.13;;;23.29;41.25
66857;BME280;53766;50.280;19.160;2022-09-13T08:32:02;98173.09;;;23.30;41.08
66857;BME280;53766;50.280;19.160;2022-09-13T08:34:30;98168.75;;;23.29;41.05
66857;BME280;53766;50.280;19.160;2022-09-13T08:36:58;98172.00;;;23.31;40.96
66857;BME280;53766;50.280;19.160;2022-09-13T08:39:26;98171.22;;;23.31;41.34
66857;BME280;53766;50.280;19.160;2022-09-13T08:44:45;98166.16;;;23.34;41.15
66857;BME280;53766;50.280;19.160;2022-09-13T08:50:14;98163.00;;;23.37;41.24
66857;BME280;53766;50.280;19.160;2022-09-13T08:53:02;98160.31;;;23.37;41.11
66857;BME280;53766;50.280;19.160;2022-09-13T08:58:27;98155.50;;;23.39;41.26
66857;BME280;53766;50.280;19.160;2022-09-13T09:01:49;98149.06;;;23.40;41.06
66857;BME280;53766;50.280;19.160;2022-09-13T09:06:45;98158.53;;;23.43;41.11
66857;BME280;53766;50.280;19.160;2022-09-13T09:09:18;98153.97;;;23.44;41.25
66857;BME280;53766;50.280;19.160;2022-09-13T09:12:14;98155.56;;;23.45;41.29
66857;BME280;53766;50.280;19.160;2022-09-13T09:14:52;98151.84;;;23.46;41.08
66857;BME280;53766;50.280;19.160;2022-09-13T09:17:27;98152.66;;;23.46;41.29
66857;BME280;53766;50.280;19.160;2022-09-13T09:23:16;98151.84;;;23.46;41.04
66857;BME280;53766;50.280;19.160;2022-09-13T09:25:56;98144.34;;;23.48;41.25
66857;BME280;53766;50.280;19.160;2022-09-13T09:28:27;98151.56;;;23.47;41.22
66857;BME280;53766;50.280;19.160;2022-09-13T09:34:15;98136.84;;;23.50;41.29
66857;BME280;53766;50.280;19.160;2022-09-13T09:37:14;98130.41;;;23.51;41.44
66857;BME280;53766;50.280;19.160;2022-09-13T09:39:43;98133.91;;;23.51;41.12
66857;BME280;53766;50.280;19.160;2022-09-13T09:42:16;98130.19;;;23.52;41.34
66857;BME280;53766;50.280;19.160;2022-09-13T09:44:45;98136.34;;;23.53;41.11
66857;BME280;53766;50.280;19.160;2022-09-13T09:47:21;98124.53;;;23.54;41.13
66857;BME280;53766;50.280;19.160;2022-09-13T09:55:43;98107.38;;;23.55;41.27
66857;BME280;53766;50.280;19.160;2022-09-13T09:58:12;98108.50;;;23.59;41.32
66857;BME280;53766;50.280;19.160;2022-09-13T10:00:54;98107.44;;;23.60;41.28
66857;BME280;53766;50.280;19.160;2022-09-13T10:03:33;98107.19;;;23.61;41.16
66857;BME280;53766;50.280;19.160;2022-09-13T10:08:36;98099.94;;;23.62;40.98
66857;BME280;53766;50.280;19.160;2022-09-13T10:11:05;98089.75;;;23.64;41.08
66857;BME280;53766;50.280;19.160;2022-09-13T10:13:33;98088.13;;;23.63;41.23
66857;BME280;53766;50.280;19.160;2022-09-13T10:16:04;98093.50;;;23.63;41.30
66857;BME280;53766;50.280;19.160;2022-09-13T10:18:34;98095.13;;;23.64;41.27
66857;BME280;53766;50.280;19.160;2022-09-13T10:23:46;98088.72;;;23.65;41.42
66857;BME280;53766;50.280;19.160;2022-09-13T10:26:17;98085.19;;;23.65;41.31
66857;BME280;53766;50.280;19.160;2022-09-13T10:28:48;98093.00;;;23.66;41.36
66857;BME280;53766;50.280;19.160;2022-09-13T10:31:19;98085.50;;;23.68;41.29
66857;BME280;53766;50.280;19.160;2022-09-13T10:36:23;98087.16;;;23.69;41.19
66857;BME280;53766;50.280;19.160;2022-09-13T10:39:14;98076.41;;;23.69;41.40
66857;BME280;53766;50.280;19.160;2022-09-13T10:41:56;98071.84;;;23.70;41.27
66857;BME280;53766;50.280;19.160;2022-09-13T10:47:10;98080.47;;;23.72;41.22
66857;BME280;53766;50.280;19.160;2022-09-13T10:49:47;98078.00;;;23.70;41.28
66857;BME280;53766;50.280;19.160;2022-09-13T10:54:50;98061.97;;;23.75;41.32
66857;BME280;53766;50.280;19.160;2022-09-13T10:57:35;98062.53;;;23.77;41.15
66857;BME280;53766;50.280;19.160;2022-09-13T11:00:09;98059.03;;;23.77;41.24
66857;BME280;53766;50.280;19.160;2022-09-13T11:02:44;98060.41;;;23.79;41.05
66857;BME280;53766;50.280;19.160;2022-09-13T11:05:31;98056.69;;;23.80;41.08
66857;BME280;53766;50.280;19.160;2022-09-13T11:08:14;98049.19;;;23.83;41.24
66857;BME280;53766;50.280;19.160;2022-09-13T11:11:03;98045.41;;;23.84;41.16
66857;BME280;53766;50.280;19.160;2022-09-13T11:19:39;98035.22;;;23.86;41.19
66857;BME280;53766;50.280;19.160;2022-09-13T11:30:49;98024.03;;;23.94;41.09
66857;BME280;53766;50.280;19.160;2022-09-13T11:33:36;98029.91;;;23.91;41.27
66857;BME280;53766;50.280;19.160;2022-09-13T11:50:24;97982.38;;;23.96;41.13
66857;BME280;53766;50.280;19.160;2022-09-13T11:53:02;97968.69;;;23.98;41.19
66857;BME280;53766;50.280;19.160;2022-09-13T11:55:40;97969.25;;;24.00;40.92
66857;BME280;53766;50.280;19.160;2022-09-13T11:58:13;97961.19;;;24.00;41.15
66857;BME280;53766;50.280;19.160;2022-09-13T12:00:52;97972.75;;;24.00;41.16
66857;BME280;53766;50.280;19.160;2022-09-13T12:06:27;97961.66;;;23.97;41.03
66857;BME280;53766;50.280;19.160;2022-09-13T12:11:52;97955.72;;;23.95;41.24
66857;BME280;53766;50.280;19.160;2022-09-13T12:14:23;97947.09;;;23.93;41.25
66857;BME280;53766;50.280;19.160;2022-09-13T12:16:58;97946.28;;;23.92;41.35
66857;BME280;53766;50.280;19.160;2022-09-13T12:19:45;97942.56;;;23.93;41.09
66857;BME280;53766;50.280;19.160;2022-09-13T12:22:16;97940.09;;;23.92;41.16
66857;BME280;53766;50.280;19.160;2022-09-13T12:24:50;97950.88;;;23.92;41.19
66857;BME280;53766;50.280;19.160;2022-09-13T12:30:15;97948.16;;;23.92;41.03
66857;BME280;53766;50.280;19.160;2022-09-13T12:32:45;97938.47;;;23.91;41.25
66857;BME280;53766;50.280;19.160;2022-09-13T12:35:30;97933.91;;;23.91;41.25
66857;BME280;53766;50.280;19.160;2022-09-13T12:54:50;97927.22;;;23.94;41.19
66857;BME280;53766;50.280;19.160;2022-09-13T13:00:19;97916.22;;;23.95;40.94
66857;BME280;53766;50.280;19.160;2022-09-13T13:05:36;97913.31;;;24.02;40.90
66857;BME280;53766;50.280;19.160;2022-09-13T13:08:22;97923.00;;;24.03;40.77
66857;BME280;53766;50.280;19.160;2022-09-13T13:11:24;97917.38;;;24.05;40.92
66857;BME280;53766;50.280;19.160;2022-09-13T13:13:58;97917.66;;;24.08;40.91
66857;BME280;53766;50.280;19.160;2022-09-13T13:16:34;97912.59;;;24.12;40.78
66857;BME280;53766;50.280;19.160;2022-09-13T13:19:05;97903.72;;;24.11;41.00
66857;BME280;53766;50.280;19.160;2022-09-13T13:21:51;97897.03;;;24.14;40.74
66857;BME280;53766;50.280;19.160;2022-09-13T13:26:52;97898.38;;;24.16;40.82
66857;BME280;53766;50.280;19.160;2022-09-13T13:29:31;97889.25;;;24.17;41.04
66857;BME280;53766;50.280;19.160;2022-09-13T13:39:46;97895.75;;;24.21;40.90
66857;BME280;53766;50.280;19.160;2022-09-13T13:42:27;97896.25;;;24.18;40.92
66857;BME280;53766;50.280;19.160;2022-09-13T13:50:16;97888.16;;;24.13;40.95
66857;BME280;53766;50.280;19.160;2022-09-13T13:52:56;97889.19;;;24.12;41.10
66857;BME280;53766;50.280;19.160;2022-09-13T13:58:26;97883.81;;;24.12;40.66
66857;BME280;53766;50.280;19.160;2022-09-13T14:00:54;97883.00;;;24.12;40.98
66857;BME280;53766;50.280;19.160;2022-09-13T14:09:03;97858.81;;;24.12;40.66
66857;BME280;53766;50.280;19.160;2022-09-13T14:20:07;97845.59;;;24.10;40.57
66857;BME280;53766;50.280;19.160;2022-09-13T14:22:36;97851.81;;;24.11;40.65
66857;BME280;53766;50.280;19.160;2022-09-13T14:27:47;97838.59;;;24.09;40.48
66857;BME280;53766;50.280;19.160;2022-09-13T14:32:48;97843.44;;;24.07;40.74
66857;BME280;53766;50.280;19.160;2022-09-13T14:38:33;97840.75;;;24.07;40.64
66857;BME280;53766;50.280;19.160;2022-09-13T14:41:15;97846.13;;;24.07;40.70
66857;BME280;53766;50.280;19.160;2022-09-13T14:43:44;97833.22;;;24.09;40.33
66857;BME280;53766;50.280;19.160;2022-09-13T14:46:31;97835.09;;;24.09;40.30
66857;BME280;53766;50.280;19.160;2022-09-13T14:49:06;97834.84;;;24.10;40.38
66857;BME280;53766;50.280;19.160;2022-09-13T14:51:55;97831.09;;;24.11;40.63
66857;BME280;53766;50.280;19.160;2022-09-13T14:54:34;97837.03;;;24.13;40.56
66857;BME280;53766;50.280;19.160;2022-09-13T14:57:06;97833.53;;;24.13;40.71
66857;BME280;53766;50.280;19.160;2022-09-13T14:59:41;97828.16;;;24.13;40.77
66857;BME280;53766;50.280;19.160;2022-09-13T15:02:24;97823.56;;;24.13;40.57
66857;BME280;53766;50.280;19.160;2022-09-13T15:05:04;97818.44;;;24.12;40.89
66857;BME280;53766;50.280;19.160;2022-09-13T15:07:34;97816.56;;;24.12;40.94
66857;BME280;53766;50.280;19.160;2022-09-13T15:10:20;97809.56;;;24.11;40.77
66857;BME280;53766;50.280;19.160;2022-09-13T15:13:14;97812.25;;;24.11;41.00
66857;BME280;53766;50.280;19.160;2022-09-13T15:15:43;97799.84;;;24.10;40.88
66857;BME280;53766;50.280;19.160;2022-09-13T15:26:09;97802.56;;;24.10;41.10
66857;BME280;53766;50.280;19.160;2022-09-13T15:31:20;97797.16;;;24.10;41.13
66857;BME280;53766;50.280;19.160;2022-09-13T15:39:41;97800.13;;;24.09;41.46
66857;BME280;53766;50.280;19.160;2022-09-13T15:42:09;97802.56;;;24.10;41.23
66857;BME280;53766;50.280;19.160;2022-09-13T15:44:36;97798.25;;;24.09;41.22
66857;BME280;53766;50.280;19.160;2022-09-13T15:47:13;97798.25;;;24.09;41.41
66857;BME280;53766;50.280;19.160;2022-09-13T15:49:49;97793.94;;;24.08;41.35
66857;BME280;53766;50.280;19.160;2022-09-13T15:52:19;97800.13;;;24.09;41.55
66857;BME280;53766;50.280;19.160;2022-09-13T15:54:48;97793.94;;;24.08;41.53
66857;BME280;53766;50.280;19.160;2022-09-13T15:57:20;97793.94;;;24.08;41.33
66857;BME280;53766;50.280;19.160;2022-09-13T15:59:50;97796.63;;;24.08;41.46
66857;BME280;53766;50.280;19.160;2022-09-13T16:02:24;97802.00;;;24.08;41.36
66857;BME280;53766;50.280;19.160;2022-09-13T16:04:53;97800.13;;;24.09;41.53
66857;BME280;53766;50.280;19.160;2022-09-13T16:07:22;97794.75;;;24.09;41.46
66857;BME280;53766;50.280;19.160;2022-09-13T16:09:50;97796.63;;;24.08;41.33
66857;BME280;53766;50.280;19.160;2022-09-13T16:12:18;97796.63;;;24.08;41.25
66857;BME280;53766;50.280;19.160;2022-09-13T16:14:48;97795.81;;;24.08;41.28
66857;BME280;53766;50.280;19.160;2022-09-13T16:17:20;97795.81;;;24.08;41.55
66857;BME280;53766;50.280;19.160;2022-09-13T16:19:48;97796.91;;;24.07;41.41
66857;BME280;53766;50.280;19.160;2022-09-13T16:22:15;97792.31;;;24.07;41.59
66857;BME280;53766;50.280;19.160;2022-09-13T16:24:43;97794.44;;;24.05;41.53
66857;BME280;53766;50.280;19.160;2022-09-13T16:27:12;97794.44;;;24.05;41.75
66857;BME280;53766;50.280;19.160;2022-09-13T16:29:41;97793.38;;;24.06;41.43
66857;BME280;53766;50.280;19.160;2022-09-13T16:32:10;97791.50;;;24.07;41.73
66857;BME280;53766;50.280;19.160;2022-09-13T16:34:37;97785.31;;;24.06;41.56
66857;BME280;53766;50.280;19.160;2022-09-13T16:37:05;97790.69;;;24.06;41.61
66857;BME280;53766;50.280;19.160;2022-09-13T16:39:32;97795.25;;;24.06;41.44
66857;BME280;53766;50.280;19.160;2022-09-13T16:42:00;97790.69;;;24.06;41.47
66857;BME280;53766;50.280;19.160;2022-09-13T16:44:27;97795.53;;;24.04;41.62
66857;BME280;53766;50.280;19.160;2022-09-13T16:46:55;97799.03;;;24.05;41.92
66857;BME280;53766;50.280;19.160;2022-09-13T16:49:24;97799.03;;;24.05;41.56